Time;durP1;ratioP1;P1;durP2;ratioP2;P2;SDS_P1;SDS_P2;PMS_P1;PMS_P2;Temp;Humidity;BMP_temperature;BMP_pressure;BME280_temperature;BME280_humidity;BME280_pressure;Samples;Min_cycle;Max_cycle;Signal;HPM_P1;HPM_P2
2021/03/08 00:01:26;;;;;;;10.27;6.53;;;;;;;0.16;53.74;98242.47;4939881;29;20706;-74
2021/03/08 00:03:52;;;;;;;9.73;6.17;;;;;;;-0.01;55.16;98254.38;4940904;28;20280;-74
2021/03/08 00:06:18;;;;;;;8.73;5.97;;;;;;;-0.16;55.34;98249.19;4941394;29;20237;-73
2021/03/08 00:08:45;;;;;;;9.03;6.00;;;;;;;-0.30;55.82;98255.06;4943483;29;20209;-74
2021/03/08 00:11:11;;;;;;;8.10;5.47;;;;;;;-0.40;56.68;98256.72;4941998;29;20251;-73
2021/03/08 00:13:38;;;;;;;8.43;5.70;;;;;;;-0.46;56.95;98250.66;4941847;28;20210;-73
2021/03/08 00:16:04;;;;;;;9.60;6.17;;;;;;;-0.36;56.17;98256.75;4939677;29;20240;-72
2021/03/08 00:18:30;;;;;;;7.03;5.53;;;;;;;-0.31;56.12;98255.03;4941272;29;20263;-72
2021/03/08 00:20:56;;;;;;;9.37;5.60;;;;;;;-0.31;55.52;98249.91;4941317;29;20241;-74
2021/03/08 00:23:22;;;;;;;10.90;6.40;;;;;;;-0.35;55.14;98259.31;4942908;29;20229;-73
2021/03/08 00:25:49;;;;;;;11.60;6.67;;;;;;;-0.33;55.50;98257.63;4940514;28;20311;-72
2021/03/08 00:28:15;;;;;;;10.63;6.50;;;;;;;-0.33;55.17;98249.94;4941288;29;20210;-72
2021/03/08 00:30:41;;;;;;;9.80;5.87;;;;;;;-0.31;55.65;98242.22;4941839;28;20241;-72
2021/03/08 00:33:07;;;;;;;10.30;5.93;;;;;;;-0.29;55.04;98243.13;4940170;29;20324;-73
2021/03/08 00:35:33;;;;;;;10.17;5.70;;;;;;;-0.24;54.99;98236.28;4940721;28;20233;-73
2021/03/08 00:37:59;;;;;;;10.80;4.93;;;;;;;-0.31;55.29;98239.66;4941013;29;20260;-72
2021/03/08 00:40:25;;;;;;;6.27;4.00;;;;;;;-0.52;56.07;98246.38;4939818;29;20639;-73
2021/03/08 00:42:53;;;;;;;8.13;5.17;;;;;;;-0.68;56.84;98255.66;4941412;29;20219;-73
2021/03/08 00:45:21;;;;;;;8.80;5.20;;;;;;;-0.90;58.42;98256.31;4941624;28;20233;-72
2021/03/08 00:47:47;;;;;;;11.83;5.83;;;;;;;-1.03;59.30;98256.22;4940993;29;20213;-72
2021/03/08 00:50:15;;;;;;;9.93;5.80;;;;;;;-0.93;57.79;98253.72;4940571;29;20671;-73
2021/03/08 00:52:41;;;;;;;13.50;7.17;;;;;;;-0.88;57.37;98252.94;4940512;29;20206;-73
2021/03/08 00:55:08;;;;;;;16.47;8.67;;;;;;;-0.81;57.10;98253.81;4939757;28;20757;-72
2021/03/08 00:57:34;;;;;;;13.43;8.13;;;;;;;-0.80;56.93;98250.44;4941330;29;20221;-75
2021/03/08 01:00:01;;;;;;;13.83;7.73;;;;;;;-0.79;57.07;98249.56;4940688;29;20927;-73
2021/03/08 01:02:27;;;;;;;15.43;9.23;;;;;;;-0.78;56.77;98256.41;4941745;29;20554;-72
2021/03/08 01:04:53;;;;;;;12.93;7.33;;;;;;;-0.74;56.59;98253.03;4941667;28;20655;-74
2021/03/08 01:07:19;;;;;;;17.17;8.47;;;;;;;-0.71;56.32;98245.38;4938706;29;20242;-73
2021/03/08 01:09:45;;;;;;;16.80;8.70;;;;;;;-0.70;56.52;98241.97;4939288;29;20995;-75
2021/03/08 01:12:12;;;;;;;15.97;8.60;;;;;;;-0.71;56.34;98247.94;4940348;29;20244;-74
2021/03/08 01:14:39;;;;;;;18.00;8.77;;;;;;;-0.65;56.59;98253.09;4938938;28;20241;-73
2021/03/08 01:17:06;;;;;;;18.90;9.50;;;;;;;-0.67;56.67;98249.66;4940172;29;20249;-73
2021/03/08 01:19:33;;;;;;;17.73;8.67;;;;;;;-0.70;56.78;98252.22;4941245;29;20889;-73
2021/03/08 01:21:59;;;;;;;16.80;8.10;;;;;;;-0.89;57.58;98252.91;4941182;29;20280;-72
2021/03/08 01:24:25;;;;;;;18.03;8.47;;;;;;;-0.94;57.70;98252.00;4940659;28;20253;-75
2021/03/08 01:26:51;;;;;;;18.63;8.63;;;;;;;-1.00;57.81;98252.81;4939490;29;20889;-75
2021/03/08 01:29:17;;;;;;;18.03;8.20;;;;;;;-0.97;57.30;98248.56;4939656;29;20725;-73
2021/03/08 01:31:43;;;;;;;18.47;7.87;;;;;;;-1.01;57.34;98251.97;4937036;29;20241;-72
2021/03/08 01:34:10;;;;;;;16.47;8.90;;;;;;;-0.98;57.17;98251.97;4940107;28;20925;-72
2021/03/08 01:36:37;;;;;;;15.33;8.27;;;;;;;-0.98;57.14;98244.28;4939235;29;20233;-76
2021/03/08 01:39:03;;;;;;;14.83;8.43;;;;;;;-0.97;56.92;98238.34;4939496;29;20238;-73
2021/03/08 01:41:29;;;;;;;14.93;8.50;;;;;;;-0.94;56.95;98242.63;4939091;28;20237;-73
2021/03/08 01:43:56;;;;;;;14.53;7.63;;;;;;;-0.94;56.87;98241.75;4939936;28;20793;-73
2021/03/08 01:46:22;;;;;;;13.03;7.57;;;;;;;-0.95;56.87;98242.63;4940084;29;20233;-72
2021/03/08 01:48:48;;;;;;;16.27;7.30;;;;;;;-0.99;57.21;98239.19;4941870;29;20225;-72
2021/03/08 01:51:15;;;;;;;13.07;6.90;;;;;;;-0.99;57.16;98237.47;4940577;29;20238;-73
2021/03/08 01:53:41;;;;;;;13.90;7.50;;;;;;;-1.01;56.74;98230.59;4941148;28;20218;-74
2021/03/08 01:56:07;;;;;;;15.67;8.13;;;;;;;-1.07;56.96;98221.16;4940312;29;20265;-72
2021/03/08 01:58:33;;;;;;;17.07;7.80;;;;;;;-1.12;57.14;98217.72;4941082;29;20237;-73
2021/03/08 02:01:00;;;;;;;16.40;7.57;;;;;;;-1.16;57.26;98228.75;4940754;29;20241;-72
2021/03/08 02:03:26;;;;;;;13.27;7.13;;;;;;;-1.29;58.02;98230.34;4940611;29;20221;-72
2021/03/08 02:05:52;;;;;;;11.40;6.27;;;;;;;-1.39;57.85;98229.41;4939887;28;20689;-73
2021/03/08 02:08:20;;;;;;;10.13;6.40;;;;;;;-1.42;58.40;98229.34;4941333;29;20221;-73
2021/03/08 02:10:47;;;;;;;8.57;6.13;;;;;;;-1.44;57.92;98225.09;4940345;29;20252;-72
2021/03/08 02:13:43;;;;;;;11.70;7.33;;;;;;;-1.56;59.55;98223.25;4940866;29;20214;-72
2021/03/08 02:16:13;;;;;;;10.33;6.90;;;;;;;-1.55;58.40;98227.53;4939772;29;20268;-73
2021/03/08 02:18:43;;;;;;;10.13;7.07;;;;;;;-1.52;58.46;98227.56;4940340;29;20233;-75
2021/03/08 02:21:28;;;;;;;8.80;6.17;;;;;;;-1.48;58.53;98218.22;4941255;29;20245;-73
2021/03/08 02:24:19;;;;;;;9.30;5.83;;;;;;;-1.52;58.27;98217.34;4940264;28;20241;-72
2021/03/08 02:26:48;;;;;;;8.77;5.93;;;;;;;-1.50;57.91;98219.91;4939037;29;20245;-72
2021/03/08 02:29:47;;;;;;;9.93;6.87;;;;;;;-1.47;58.17;98209.69;4941059;29;20272;-72
2021/03/08 02:32:16;;;;;;;8.77;6.07;;;;;;;-1.42;58.34;98213.16;4939991;29;20365;-73
2021/03/08 02:34:46;;;;;;;11.70;6.23;;;;;;;-1.50;58.30;98209.69;4939549;28;20241;-72
2021/03/08 02:37:17;;;;;;;10.67;5.63;;;;;;;-1.56;58.47;98206.22;4940937;29;20245;-72
2021/03/08 02:39:45;;;;;;;8.13;5.77;;;;;;;-1.56;58.69;98206.22;4940772;29;20252;-72
2021/03/08 02:42:17;;;;;;;10.07;5.77;;;;;;;-1.53;58.42;98205.38;4940717;29;20241;-72
2021/03/08 02:44:44;;;;;;;10.27;5.40;;;;;;;-1.73;59.13;98211.97;4940140;28;20230;-72
2021/03/08 02:47:10;;;;;;;7.80;5.60;;;;;;;-1.72;58.67;98203.47;4940651;29;20300;-74
2021/03/08 02:49:39;;;;;;;11.07;6.50;;;;;;;-1.75;59.60;98210.28;4941990;29;20218;-73
2021/03/08 02:52:09;;;;;;;8.80;6.00;;;;;;;-1.75;58.75;98205.16;4940793;29;20694;-72
2021/03/08 02:54:37;;;;;;;9.40;6.00;;;;;;;-1.75;59.33;98205.16;4941326;28;20276;-73
2021/03/08 02:57:06;;;;;;;8.20;5.93;;;;;;;-1.84;59.89;98206.72;4943246;29;20249;-72
2021/03/08 02:59:35;;;;;;;12.00;6.83;;;;;;;-1.95;59.95;98215.16;4942845;29;20241;-73
2021/03/08 03:02:01;;;;;;;9.57;6.07;;;;;;;-2.02;60.34;98217.59;4942498;29;20268;-73
2021/03/08 03:04:28;;;;;;;10.23;5.97;;;;;;;-1.98;59.76;98212.53;4943718;28;20238;-72
2021/03/08 03:06:55;;;;;;;8.23;5.70;;;;;;;-1.96;60.54;98210.00;4944440;29;20249;-74
2021/03/08 03:09:22;;;;;;;8.50;5.90;;;;;;;-1.98;59.84;98211.69;4945247;29;21052;-72
2021/03/08 03:11:53;;;;;;;7.30;5.20;;;;;;;-2.01;59.88;98221.88;4944625;29;20338;-73
2021/03/08 03:14:20;;;;;;;9.60;5.83;;;;;;;-2.02;60.40;98222.69;4944179;28;20656;-73
2021/03/08 03:16:48;;;;;;;9.27;5.93;;;;;;;-1.97;59.71;98219.38;4943715;29;20915;-72
2021/03/08 03:19:16;;;;;;;10.87;6.57;;;;;;;-1.92;59.50;98219.44;4943833;29;20234;-72
2021/03/08 03:21:45;;;;;;;7.17;5.10;;;;;;;-1.87;60.01;98220.34;4941903;29;20241;-72
2021/03/08 03:24:12;;;;;;;7.47;5.90;;;;;;;-1.85;59.22;98217.81;4943076;28;20699;-73
2021/03/08 03:26:40;;;;;;;10.87;7.13;;;;;;;-1.87;59.49;98225.47;4943492;29;20268;-72
2021/03/08 03:29:08;;;;;;;8.80;6.13;;;;;;;-1.91;59.07;98221.16;4943914;29;20589;-73
2021/03/08 03:31:36;;;;;;;7.43;4.67;;;;;;;-1.92;59.91;98227.09;4943017;29;20778;-72
2021/03/08 03:34:04;;;;;;;8.87;5.63;;;;;;;-1.94;59.21;98231.34;4942736;28;20280;-73
2021/03/08 03:36:32;;;;;;;7.13;5.03;;;;;;;-1.95;60.14;98234.72;4943094;29;20846;-72
2021/03/08 03:38:58;;;;;;;9.87;6.37;;;;;;;-1.98;60.15;98237.25;4943345;29;20241;-72
2021/03/08 03:41:26;;;;;;;9.03;5.93;;;;;;;-1.98;60.06;98239.81;4943112;29;20245;-72
2021/03/08 03:43:52;;;;;;;9.63;6.00;;;;;;;-2.00;59.61;98241.50;4943235;28;20240;-73
2021/03/08 03:46:19;;;;;;;9.67;6.50;;;;;;;-2.07;60.08;98239.69;4943082;29;20276;-73
2021/03/08 03:48:45;;;;;;;7.33;5.73;;;;;;;-2.07;59.49;98239.69;4943694;29;20217;-72
2021/03/08 03:51:11;;;;;;;8.00;5.13;;;;;;;-2.16;60.01;98248.09;4942160;29;20907;-72
2021/03/08 03:53:37;;;;;;;7.37;5.30;;;;;;;-2.30;60.79;98247.88;4943158;28;20217;-73
2021/03/08 03:56:06;;;;;;;9.37;5.30;;;;;;;-2.36;60.74;98246.09;4942743;29;20264;-74
2021/03/08 03:58:35;;;;;;;7.97;5.40;;;;;;;-2.48;61.28;98245.94;4943483;29;20238;-73
2021/03/08 04:01:05;;;;;;;6.63;4.37;;;;;;;-2.48;61.74;98250.19;4941749;29;20229;-72
2021/03/08 04:03:37;;;;;;;7.93;4.93;;;;;;;-2.53;62.17;98248.41;4943263;28;20226;-72
2021/03/08 04:06:06;;;;;;;7.03;4.90;;;;;;;-2.57;61.57;98248.38;4941464;28;20264;-75
2021/03/08 04:08:32;;;;;;;6.60;5.10;;;;;;;-2.49;61.17;98262.09;4943366;29;20222;-74
2021/03/08 04:11:02;;;;;;;11.57;5.20;;;;;;;-2.41;60.44;98265.66;4942737;29;20237;-72
2021/03/08 04:13:30;;;;;;;8.37;5.03;;;;;;;-2.37;60.42;98269.97;4942617;29;20221;-72
2021/03/08 04:15:58;;;;;;;6.70;4.70;;;;;;;-2.32;61.25;98267.44;4941463;29;20273;-72
2021/03/08 04:18:25;;;;;;;8.17;5.10;;;;;;;-2.32;61.12;98267.44;4942685;29;20261;-72
2021/03/08 04:20:53;;;;;;;8.73;5.40;;;;;;;-2.30;61.23;98270.88;4942083;29;20237;-72
2021/03/08 04:23:19;;;;;;;6.13;4.70;;;;;;;-2.34;60.79;98284.47;4942797;29;20244;-73
2021/03/08 04:25:47;;;;;;;7.93;5.13;;;;;;;-2.35;61.10;98291.28;4942395;28;20270;-74
2021/03/08 04:28:14;;;;;;;8.30;4.83;;;;;;;-2.35;61.07;98285.31;4942561;29;20225;-73
2021/03/08 04:30:41;;;;;;;6.47;4.63;;;;;;;-2.43;61.14;98290.28;4941608;29;20869;-73
2021/03/08 04:33:09;;;;;;;7.80;4.80;;;;;;;-2.51;61.68;98284.22;4942207;29;20227;-73
2021/03/08 04:35:35;;;;;;;8.27;4.60;;;;;;;-2.55;60.86;98279.91;4941722;28;20252;-73
2021/03/08 04:38:02;;;;;;;8.27;4.57;;;;;;;-2.65;61.63;98286.53;4941832;29;20362;-74
2021/03/08 04:40:28;;;;;;;8.80;4.77;;;;;;;-2.76;62.28;98288.94;4941681;29;20249;-72
2021/03/08 04:42:54;;;;;;;7.27;4.97;;;;;;;-2.77;61.93;98286.34;4942177;29;20579;-73
2021/03/08 04:45:21;;;;;;;6.03;4.40;;;;;;;-2.71;61.29;98284.75;4941695;28;20714;-73
2021/03/08 04:47:48;;;;;;;8.00;4.87;;;;;;;-2.69;61.27;98281.38;4942307;29;20715;-72
2021/03/08 04:50:16;;;;;;;8.70;4.97;;;;;;;-2.69;61.63;98284.78;4941306;29;20217;-72
2021/03/08 04:52:44;;;;;;;9.17;5.23;;;;;;;-2.69;61.34;98284.78;4940787;29;20229;-73
2021/03/08 04:55:12;;;;;;;8.07;5.00;;;;;;;-2.69;61.75;98291.56;4941701;28;20237;-72
2021/03/08 04:57:39;;;;;;;7.43;5.00;;;;;;;-2.81;61.14;98282.88;4942199;29;20224;-72
2021/03/08 05:00:07;;;;;;;9.13;5.30;;;;;;;-2.77;61.21;98279.53;4941472;29;20253;-72
2021/03/08 05:02:35;;;;;;;8.80;4.90;;;;;;;-2.77;60.99;98282.09;4941913;29;20225;-72
2021/03/08 05:05:03;;;;;;;10.13;5.37;;;;;;;-2.81;61.05;98279.44;4943289;28;20234;-74
2021/03/08 05:07:30;;;;;;;8.27;4.93;;;;;;;-2.83;62.18;98283.69;4942228;29;20245;-73
2021/03/08 05:09:57;;;;;;;9.00;5.30;;;;;;;-2.92;62.07;98287.81;4942538;29;20213;-72
2021/03/08 05:12:27;;;;;;;11.30;5.60;;;;;;;-2.96;61.91;98282.59;4941712;29;20245;-72
2021/03/08 05:14:55;;;;;;;7.93;5.20;;;;;;;-2.98;62.39;98290.25;4942537;28;20253;-72
2021/03/08 05:17:23;;;;;;;8.10;4.80;;;;;;;-3.02;62.47;98288.47;4941572;28;20241;-73
2021/03/08 05:19:50;;;;;;;6.63;4.40;;;;;;;-3.00;61.87;98285.94;4942982;29;20780;-72
2021/03/08 05:22:16;;;;;;;8.80;5.07;;;;;;;-2.95;62.19;98289.44;4940924;29;20303;-73
2021/03/08 05:24:48;;;;;;;8.23;5.10;;;;;;;-2.97;61.69;98284.31;4940863;28;20241;-72
2021/03/08 05:27:14;;;;;;;7.70;4.40;;;;;;;-3.03;61.89;98286.78;4942019;29;20240;-75
2021/03/08 05:29:42;;;;;;;8.97;4.60;;;;;;;-3.19;63.31;98295.81;4942288;29;20224;-73
2021/03/08 05:32:11;;;;;;;9.63;4.90;;;;;;;-3.22;62.31;98298.31;4942001;29;20238;-72
2021/03/08 05:34:40;;;;;;;8.83;4.77;;;;;;;-3.18;62.94;98301.78;4942427;28;20238;-73
2021/03/08 05:37:07;;;;;;;7.53;4.70;;;;;;;-3.13;62.02;98300.19;4942135;29;20241;-72
2021/03/08 05:39:33;;;;;;;9.67;5.30;;;;;;;-3.06;62.73;98291.81;4942326;29;20927;-72
2021/03/08 05:42:06;;;;;;;10.47;5.40;;;;;;;-3.05;62.35;98298.66;4941947;29;20244;-72
2021/03/08 05:44:33;;;;;;;9.77;4.37;;;;;;;-3.13;62.57;98300.19;4941305;28;20296;-74
2021/03/08 05:47:19;;;;;;;7.13;4.43;;;;;;;-3.31;64.60;98311.78;4941918;29;20916;-72
2021/03/08 05:50:10;;;;;;;6.57;4.27;;;;;;;-3.30;64.02;98316.03;4942565;29;20209;-72
2021/03/08 05:52:51;;;;;;;10.67;5.70;;;;;;;-3.20;62.48;98318.75;4914968;29;20301;-73
2021/03/08 05:55:53;;;;;;;8.77;5.20;;;;;;;-3.05;62.36;98324.16;4941070;28;20245;-73
2021/03/08 05:58:52;;;;;;;8.53;4.73;;;;;;;-2.97;63.30;98327.69;4939022;29;20217;-73
2021/03/08 06:01:57;;;;;;;7.87;5.10;;;;;;;-3.06;64.19;98335.19;4936802;28;20241;-71
2021/03/08 06:04:34;;;;;;;6.77;4.47;;;;;;;-3.13;63.74;98335.91;4864521;29;20997;-73
2021/03/08 06:07:34;;;;;;;9.03;4.97;;;;;;;-3.07;64.40;98336.00;4942239;28;20289;-72
2021/03/08 06:10:03;;;;;;;8.43;5.20;;;;;;;-2.97;63.89;98337.91;4942839;29;20216;-74
2021/03/08 06:12:32;;;;;;;10.00;5.53;;;;;;;-2.93;63.29;98326.91;4942043;28;20252;-72
2021/03/08 06:15:03;;;;;;;9.50;5.77;;;;;;;-2.92;64.27;98331.19;4942138;28;20253;-72
2021/03/08 06:17:30;;;;;;;8.83;4.77;;;;;;;-2.98;64.11;98341.31;4941588;29;20249;-72
2021/03/08 06:19:58;;;;;;;12.03;5.93;;;;;;;-3.00;65.17;98334.44;4941859;28;20818;-73
2021/03/08 06:22:24;;;;;;;7.70;4.70;;;;;;;-3.05;66.48;98339.47;4941336;29;20245;-72
2021/03/08 06:24:50;;;;;;;7.60;5.00;;;;;;;-3.06;66.07;98337.75;4942365;28;20237;-73
2021/03/08 06:27:16;;;;;;;8.10;5.03;;;;;;;-3.21;67.12;98329.81;4941817;29;20229;-72
2021/03/08 06:29:43;;;;;;;17.17;5.60;;;;;;;-3.17;67.29;98339.25;4944217;28;20869;-72
2021/03/08 06:32:11;;;;;;;7.07;5.00;;;;;;;-2.97;65.45;98345.56;4945762;29;20241;-73
2021/03/08 06:34:38;;;;;;;9.23;5.47;;;;;;;-2.94;66.64;98345.63;4945802;28;20276;-72
2021/03/08 06:37:07;;;;;;;7.83;4.90;;;;;;;-3.01;67.89;98351.47;4946061;28;20233;-71
2021/03/08 06:39:33;;;;;;;10.70;6.07;;;;;;;-3.04;67.26;98356.50;4946402;29;20311;-72
2021/03/08 06:42:00;;;;;;;9.10;5.57;;;;;;;-2.94;66.94;98349.84;4945661;29;20613;-72
2021/03/08 06:44:26;;;;;;;8.80;5.70;;;;;;;-2.88;66.45;98351.69;4945188;28;20233;-72
2021/03/08 06:46:52;;;;;;;10.60;5.93;;;;;;;-2.81;67.41;98363.69;4945511;29;20296;-73
2021/03/08 06:49:18;;;;;;;11.37;5.50;;;;;;;-2.71;67.01;98361.34;4946184;29;20288;-72
2021/03/08 06:52:01;;;;;;;10.27;5.63;;;;;;;-2.66;67.55;98369.09;4945762;29;20237;-73
2021/03/08 06:54:29;;;;;;;8.83;5.50;;;;;;;-2.61;66.72;98372.59;4944915;28;20315;-73
2021/03/08 06:56:55;;;;;;;10.57;5.10;;;;;;;-2.56;66.92;98378.63;4945094;29;20241;-72
2021/03/08 06:59:21;;;;;;;10.33;5.90;;;;;;;-2.44;66.06;98374.59;4946576;29;20248;-73
2021/03/08 07:01:47;;;;;;;10.30;6.50;;;;;;;-2.36;66.62;98384.06;4945654;29;20773;-72
2021/03/08 07:04:14;;;;;;;10.53;6.57;;;;;;;-2.27;66.31;98368.03;4946534;28;20293;-72
2021/03/08 07:06:41;;;;;;;9.47;6.00;;;;;;;-2.23;65.88;98380.03;4945572;29;20241;-72
2021/03/08 07:09:08;;;;;;;10.67;6.00;;;;;;;-2.17;66.46;98380.13;4946631;29;20221;-73
2021/03/08 07:11:35;;;;;;;9.07;6.00;;;;;;;-2.11;66.67;98388.72;4946179;28;20667;-72
2021/03/08 07:14:01;;;;;;;10.80;6.43;;;;;;;-1.98;66.85;98385.53;4945418;28;20252;-72
2021/03/08 07:16:35;;;;;;;11.33;6.30;;;;;;;-1.92;67.03;98385.63;4945567;29;20664;-73
2021/03/08 07:19:01;;;;;;;10.17;6.27;;;;;;;-1.80;67.23;98393.47;4946175;29;20875;-72
2021/03/08 07:21:27;;;;;;;9.27;4.93;;;;;;;-1.78;67.36;98390.94;4945873;29;20471;-72
2021/03/08 07:23:54;;;;;;;12.97;6.73;;;;;;;-1.70;66.65;98391.06;4946083;28;20530;-72
2021/03/08 07:26:21;;;;;;;10.57;6.70;;;;;;;-1.58;66.61;98383.53;4945953;29;20245;-73
2021/03/08 07:29:12;;;;;;;13.10;6.87;;;;;;;-1.42;65.48;98376.91;4946263;29;20229;-73
2021/03/08 07:31:39;;;;;;;12.63;7.57;;;;;;;-1.29;65.13;98383.06;4945695;29;21111;-72
2021/03/08 07:34:08;;;;;;;13.37;7.07;;;;;;;-1.20;65.54;98375.47;4945990;28;20241;-73
2021/03/08 07:36:35;;;;;;;11.57;6.70;;;;;;;-1.16;65.79;98374.66;4944764;29;20681;-72
2021/03/08 07:39:12;;;;;;;9.47;6.33;;;;;;;-1.05;66.08;98378.25;4945299;29;20274;-72
2021/03/08 07:41:53;;;;;;;10.67;5.00;;;;;;;-1.13;68.02;98382.41;4944590;28;20256;-72
2021/03/08 07:44:21;;;;;;;10.43;4.60;;;;;;;-1.14;67.43;98378.09;4945092;28;20238;-72
2021/03/08 07:46:47;;;;;;;14.03;7.33;;;;;;;-0.95;66.56;98380.91;4945648;29;20303;-72
2021/03/08 07:49:14;;;;;;;12.50;7.50;;;;;;;-0.92;67.30;98391.16;4945716;29;20275;-72
2021/03/08 07:52:00;;;;;;;12.33;6.97;;;;;;;-0.79;66.99;98398.13;4944952;29;20812;-73
2021/03/08 07:54:26;;;;;;;13.03;7.07;;;;;;;-0.70;66.54;98400.81;4944579;28;20727;-72
2021/03/08 07:56:52;;;;;;;8.83;5.03;;;;;;;-0.71;67.79;98408.47;4945467;29;20715;-72
2021/03/08 07:59:20;;;;;;;11.23;7.30;;;;;;;-0.66;67.17;98396.53;4946129;29;20237;-73
2021/03/08 08:01:46;;;;;;;10.13;6.73;;;;;;;-0.57;66.45;98396.63;4944753;29;20265;-72
2021/03/08 08:04:12;;;;;;;12.40;7.17;;;;;;;-0.56;67.39;98402.66;4944807;28;20264;-72
2021/03/08 08:06:38;;;;;;;14.87;8.03;;;;;;;-0.48;67.33;98401.00;4944706;29;20296;-72
2021/03/08 08:09:05;;;;;;;15.40;7.90;;;;;;;-0.35;67.29;98409.66;4945925;29;20228;-74
2021/03/08 08:11:31;;;;;;;14.30;8.10;;;;;;;-0.30;66.88;98403.72;4944942;28;20245;-74
2021/03/08 08:13:58;;;;;;;16.17;9.50;;;;;;;-0.22;66.03;98407.22;4945633;28;20292;-73
2021/03/08 08:16:28;;;;;;;16.23;8.20;;;;;;;-0.21;66.60;98403.81;4944519;29;20308;-73
2021/03/08 08:19:00;;;;;;;18.40;8.67;;;;;;;-0.07;66.24;98406.50;4945718;29;20729;-72
2021/03/08 08:21:28;;;;;;;16.60;8.50;;;;;;;0.00;65.34;98407.41;4944264;29;20249;-74
2021/03/08 08:24:01;;;;;;;14.57;9.90;;;;;;;0.14;65.25;98412.63;4945055;28;20256;-72
2021/03/08 08:26:27;;;;;;;13.70;9.30;;;;;;;0.26;65.07;98414.41;4944339;29;20245;-72
2021/03/08 08:28:54;;;;;;;14.43;9.57;;;;;;;0.39;64.53;98408.53;4945403;29;20237;-72
2021/03/08 08:31:20;;;;;;;16.93;9.20;;;;;;;0.43;65.35;98405.13;4944530;29;20245;-72
2021/03/08 08:33:47;;;;;;;12.83;7.97;;;;;;;0.37;65.71;98405.09;4945239;28;20216;-72
2021/03/08 08:36:19;;;;;;;13.73;8.60;;;;;;;0.44;65.84;98406.88;4944196;29;20242;-74
2021/03/08 08:39:14;;;;;;;16.97;9.50;;;;;;;0.55;65.50;98405.22;4943667;29;20227;-72
2021/03/08 08:41:40;;;;;;;15.43;9.67;;;;;;;0.71;64.75;98405.28;4943808;29;20252;-72
2021/03/08 08:44:37;;;;;;;15.03;9.30;;;;;;;0.82;65.39;98403.63;4944124;28;20234;-73
2021/03/08 08:47:23;;;;;;;11.97;8.30;;;;;;;0.84;65.82;98403.63;4944209;29;20254;-72
2021/03/08 08:49:53;;;;;;;13.40;9.00;;;;;;;0.89;65.35;98395.09;4944384;29;20218;-72
2021/03/08 08:52:44;;;;;;;12.97;9.03;;;;;;;0.89;65.45;98397.66;4943440;28;20245;-72
2021/03/08 08:55:11;;;;;;;10.87;6.87;;;;;;;0.85;65.63;98403.63;4943741;28;20256;-72
2021/03/08 08:57:37;;;;;;;15.30;7.70;;;;;;;0.94;65.13;98398.53;4944485;29;20704;-74
2021/03/08 09:00:19;;;;;;;11.87;8.73;;;;;;;1.05;64.40;98402.84;4944446;29;20613;-73
2021/03/08 09:02:46;;;;;;;14.37;8.30;;;;;;;1.15;63.86;98396.88;4943336;29;20225;-73
2021/03/08 09:05:39;;;;;;;9.90;7.83;;;;;;;1.29;64.52;98399.50;4943194;28;20244;-74
2021/03/08 09:08:28;;;;;;;12.57;8.30;;;;;;;1.39;64.43;98406.38;4943783;29;20753;-74
2021/03/08 09:10:55;;;;;;;13.23;8.90;;;;;;;1.47;63.76;98406.38;4943759;28;20241;-72
2021/03/08 09:13:23;;;;;;;15.03;8.90;;;;;;;1.52;64.34;98415.81;4944133;29;20217;-72
2021/03/08 09:15:49;;;;;;;15.23;8.33;;;;;;;1.53;64.04;98398.69;4943404;28;20273;-72
2021/03/08 09:18:15;;;;;;;15.20;9.60;;;;;;;1.56;63.95;98403.81;4944311;29;20667;-72
2021/03/08 09:20:43;;;;;;;12.87;8.70;;;;;;;1.67;63.76;98401.28;4942916;29;20719;-72
2021/03/08 09:23:24;;;;;;;13.27;8.87;;;;;;;1.83;63.45;98399.56;4943658;29;20233;-73
2021/03/08 09:25:56;;;;;;;13.20;8.93;;;;;;;1.88;62.80;98395.31;4940186;28;20248;-72
2021/03/08 09:28:22;;;;;;;9.57;6.17;;;;;;;1.86;63.49;98402.16;4943662;29;20232;-72
2021/03/08 09:30:49;;;;;;;13.60;8.03;;;;;;;1.86;63.71;98404.72;4943163;29;20640;-72
2021/03/08 09:33:16;;;;;;;12.07;7.55;;;;;;;1.88;64.00;98400.44;4943104;29;20221;-72
2021/03/08 09:35:44;;;;;;;12.40;8.90;;;;;;;1.96;63.87;98405.59;4942948;28;20352;-72
2021/03/08 09:38:12;;;;;;;13.07;8.27;;;;;;;2.03;63.79;98404.72;4943663;29;20719;-72
2021/03/08 09:40:39;;;;;;;19.37;9.40;;;;;;;2.08;63.37;98406.44;4943207;29;20245;-72
2021/03/08 09:43:23;;;;;;;15.00;9.37;;;;;;;2.16;63.69;98409.00;4943784;29;20229;-72
2021/03/08 09:45:59;;;;;;;24.00;12.47;;;;;;;2.30;63.51;98420.16;4943630;28;20245;-72
2021/03/08 09:48:26;;;;;;;14.17;8.90;;;;;;;2.31;62.93;98415.84;4944140;29;20217;-72
2021/03/08 09:50:53;;;;;;;13.87;8.50;;;;;;;2.44;62.43;98411.53;4943734;29;20241;-73
2021/03/08 09:53:20;;;;;;;19.20;9.23;;;;;;;2.51;62.23;98406.38;4943975;29;20228;-73
2021/03/08 09:55:46;;;;;;;14.23;8.97;;;;;;;2.51;62.74;98408.94;4943590;28;20920;-72
2021/03/08 09:58:13;;;;;;;15.20;9.10;;;;;;;2.62;62.61;98413.22;4943310;29;20209;-72
2021/03/08 10:00:40;;;;;;;16.00;11.07;;;;;;;2.73;62.17;98403.75;4942862;29;20276;-72
2021/03/08 10:03:08;;;;;;;12.27;8.40;;;;;;;2.80;61.83;98409.75;4943504;28;20288;-72
2021/03/08 10:05:42;;;;;;;12.93;8.23;;;;;;;2.93;61.44;98407.97;4943127;28;20276;-73
2021/03/08 10:08:10;;;;;;;12.07;8.80;;;;;;;3.03;60.77;98409.66;4943988;29;20320;-73
2021/03/08 10:10:38;;;;;;;13.23;8.57;;;;;;;3.11;60.45;98405.31;4943287;29;20903;-72
2021/03/08 10:13:04;;;;;;;9.80;6.00;;;;;;;3.02;61.33;98416.53;4943533;28;20214;-72
2021/03/08 10:15:39;;;;;;;13.80;7.40;;;;;;;3.06;60.82;98417.38;4942588;28;20245;-72
2021/03/08 10:18:05;;;;;;;12.33;8.03;;;;;;;3.11;61.09;98412.19;4944042;29;20221;-72
2021/03/08 10:20:32;;;;;;;12.40;8.23;;;;;;;3.20;60.51;98415.59;4942881;29;20240;-72
2021/03/08 10:22:58;;;;;;;11.17;7.83;;;;;;;3.33;60.29;98408.66;4943881;29;20229;-75
2021/03/08 10:25:27;;;;;;;12.37;7.97;;;;;;;3.43;60.31;98412.03;4942479;28;20263;-72
2021/03/08 10:27:55;;;;;;;14.90;8.40;;;;;;;3.59;59.91;98411.06;4943982;29;20224;-72
2021/03/08 10:30:22;;;;;;;10.93;7.17;;;;;;;3.66;59.18;98407.59;4943292;29;20317;-72
2021/03/08 10:32:51;;;;;;;12.15;7.18;;;;;;;3.77;58.96;98404.09;4943233;29;20209;-73
2021/03/08 10:35:17;;;;;;;11.27;8.37;;;;;;;3.89;59.18;98414.31;4942746;28;20364;-72
2021/03/08 10:37:43;;;;;;;10.50;6.63;;;;;;;3.97;58.81;98412.53;4942474;29;21130;-74
2021/03/08 10:40:11;;;;;;;10.57;6.80;;;;;;;4.05;58.58;98409.88;4943184;29;20241;-72
2021/03/08 10:42:38;;;;;;;8.20;6.10;;;;;;;4.10;58.30;98412.41;4943276;29;20217;-73
2021/03/08 10:45:06;;;;;;;9.25;6.82;;;;;;;4.08;59.02;98411.56;4943104;28;20242;-73
2021/03/08 10:47:32;;;;;;;11.02;6.47;;;;;;;4.15;58.15;98408.06;4943006;29;20233;-74
2021/03/08 10:49:58;;;;;;;8.05;3.30;;;;;;;4.18;58.53;98402.88;4943675;29;20214;-72
2021/03/08 10:52:25;;;;;;;7.80;5.45;;;;;;;4.11;58.43;98402.06;4942543;29;21013;-72
2021/03/08 10:54:51;;;;;;;8.93;6.85;;;;;;;4.19;58.60;98405.47;4942959;28;20246;-72
2021/03/08 10:57:17;;;;;;;5.63;3.43;;;;;;;4.26;58.78;98406.25;4942963;29;20237;-72
2021/03/08 10:59:49;;;;;;;9.85;6.07;;;;;;;4.38;58.20;98400.97;4941449;29;20742;-73
2021/03/08 11:02:16;;;;;;;4.32;1.95;;;;;;;4.43;58.50;98403.53;4942275;29;20309;-72
2021/03/08 11:04:43;;;;;;;7.35;5.22;;;;;;;4.61;58.19;98405.03;4942907;28;20242;-74
2021/03/08 11:07:09;;;;;;;10.02;5.55;;;;;;;4.72;58.02;98400.59;4942299;29;21003;-72
2021/03/08 11:09:37;;;;;;;3.97;3.00;;;;;;;4.69;58.09;98400.66;4943481;29;20218;-73
2021/03/08 11:12:04;;;;;;;10.57;5.32;;;;;;;4.71;58.17;98395.47;4941816;28;20711;-72
2021/03/08 11:14:49;;;;;;;8.40;5.32;;;;;;;4.88;57.59;98390.97;4942405;28;21071;-72
2021/03/08 11:17:16;;;;;;;7.82;4.88;;;;;;;5.05;57.38;98392.50;4945581;29;20734;-72
2021/03/08 11:19:42;;;;;;;7.30;4.80;;;;;;;5.18;57.51;98394.91;4946366;29;20237;-73
2021/03/08 11:22:08;;;;;;;8.27;5.20;;;;;;;5.40;57.03;98390.31;4945598;29;20241;-73
2021/03/08 11:24:42;;;;;;;7.43;4.90;;;;;;;5.44;57.76;98396.28;4946217;28;20242;-72
2021/03/08 11:27:13;;;;;;;5.68;4.03;;;;;;;5.44;56.69;98391.13;4945552;29;20251;-72
2021/03/08 11:29:41;;;;;;;9.55;5.40;;;;;;;5.53;56.87;98395.28;4946492;29;20226;-73
2021/03/08 11:32:08;;;;;;;7.60;4.75;;;;;;;5.64;57.62;98393.38;4945673;29;20245;-72
2021/03/08 11:34:42;;;;;;;6.50;4.32;;;;;;;5.72;56.85;98383.78;4945639;28;20238;-73
2021/03/08 11:37:09;;;;;;;10.00;5.07;;;;;;;5.80;57.24;98387.09;4945107;29;20460;-73
2021/03/08 11:39:40;;;;;;;6.93;5.30;;;;;;;5.85;56.51;98387.06;4945934;29;20947;-72
2021/03/08 11:42:07;;;;;;;7.72;4.75;;;;;;;5.89;56.72;98382.69;4945003;29;20245;-73